Time;durP1;ratioP1;P1;durP2;ratioP2;P2;SDS_P1;SDS_P2;PMS_P1;PMS_P2;Temp;Humidity;BMP_temperature;BMP_pressure;BME280_temperature;BME280_humidity;BME280_pressure;Samples;Min_cycle;Max_cycle;Signal;HPM_P1;HPM_P2
2022/09/02 00:00:44;;;;;;;3.15;1.73;;;19.80;93.60;;;;;;5103539;28;20122;-73
2022/09/02 00:03:10;;;;;;;3.00;1.67;;;19.80;93.70;;;;;;5094381;28;20209;-72
2022/09/02 00:05:36;;;;;;;1.60;1.50;;;19.80;93.50;;;;;;5096958;28;20075;-72
2022/09/02 00:08:03;;;;;;;2.15;1.60;;;19.80;93.80;;;;;;5105461;28;20438;-72
2022/09/02 00:10:30;;;;;;;3.28;1.67;;;19.80;93.90;;;;;;5101231;28;20040;-72
2022/09/02 00:12:55;;;;;;;1.67;1.58;;;19.80;93.80;;;;;;5107673;28;20050;-72
2022/09/02 00:15:21;;;;;;;2.70;1.98;;;19.80;93.70;;;;;;5108814;28;20422;-71
2022/09/02 00:17:47;;;;;;;3.88;1.95;;;19.80;94.00;;;;;;5097028;28;20087;-72
2022/09/02 00:20:13;;;;;;;2.17;1.60;;;19.70;93.80;;;;;;5097428;28;20108;-72
2022/09/02 00:22:39;;;;;;;3.67;1.77;;;19.70;94.20;;;;;;5111840;28;20073;-72
2022/09/02 00:25:05;;;;;;;2.75;1.55;;;19.70;94.10;;;;;;5099387;28;20386;-71
2022/09/02 00:27:32;;;;;;;2.03;1.55;;;19.70;94.10;;;;;;5109137;28;20383;-72
2022/09/02 00:29:57;;;;;;;2.03;1.73;;;19.60;94.00;;;;;;5099100;28;20042;-72
2022/09/02 00:32:23;;;;;;;2.70;1.90;;;19.60;94.00;;;;;;5109738;28;20015;-71
2022/09/02 00:34:49;;;;;;;5.57;1.85;;;19.60;94.30;;;;;;5104756;28;20030;-72
2022/09/02 00:37:15;;;;;;;2.67;1.92;;;19.60;94.20;;;;;;5098567;28;20044;-72
2022/09/02 00:39:40;;;;;;;2.67;2.03;;;19.60;94.30;;;;;;5100310;28;20024;-72
2022/09/02 00:42:06;;;;;;;3.08;1.80;;;19.60;94.20;;;;;;5094064;28;20027;-72
2022/09/02 00:44:32;;;;;;;2.42;1.60;;;19.60;94.20;;;;;;5102965;28;20070;-72
2022/09/02 00:46:59;;;;;;;3.28;1.98;;;19.60;94.30;;;;;;5098705;28;20608;-71
2022/09/02 00:49:29;;;;;;;5.40;1.70;;;19.60;94.20;;;;;;5102905;28;20490;-72
2022/09/02 00:52:06;;;;;;;2.55;1.60;;;19.60;94.20;;;;;;5100336;28;20382;-73
2022/09/02 00:54:36;;;;;;;2.03;1.60;;;19.60;94.20;;;;;;5102612;28;20031;-72
2022/09/02 00:57:22;;;;;;;3.88;2.00;;;19.50;94.10;;;;;;5097948;28;20065;-72
2022/09/02 00:59:58;;;;;;;1.75;1.63;;;19.50;94.10;;;;;;5106040;28;20203;-73
2022/09/02 01:02:28;;;;;;;2.90;1.80;;;19.50;94.20;;;;;;5098141;28;20020;-73
2022/09/02 01:04:55;;;;;;;4.68;2.05;;;19.50;94.10;;;;;;5092714;28;20483;-73
2022/09/02 01:07:22;;;;;;;4.25;1.65;;;19.50;94.00;;;;;;5107567;28;20106;-72
2022/09/02 01:09:50;;;;;;;3.70;2.10;;;19.50;94.00;;;;;;5099124;28;20035;-73
2022/09/02 01:12:15;;;;;;;2.70;1.90;;;19.50;94.00;;;;;;5107941;28;20016;-72
2022/09/02 01:14:41;;;;;;;3.35;1.60;;;19.50;93.80;;;;;;5104206;28;20082;-72
2022/09/02 01:17:08;;;;;;;2.80;1.63;;;19.50;93.80;;;;;;5098594;28;20532;-72
2022/09/02 01:19:48;;;;;;;4.10;1.98;;;19.50;93.70;;;;;;5102853;28;20120;-73
2022/09/02 01:22:26;;;;;;;2.45;1.45;;;19.60;93.50;;;;;;5098044;28;20443;-72
2022/09/02 01:24:53;;;;;;;4.15;1.80;;;19.50;93.40;;;;;;5102613;28;20024;-72
2022/09/02 01:27:22;;;;;;;4.70;1.83;;;19.60;93.30;;;;;;5097701;28;20027;-72
2022/09/02 01:29:53;;;;;;;2.17;1.55;;;19.60;93.00;;;;;;5102626;28;20118;-72
2022/09/02 01:32:21;;;;;;;2.90;1.25;;;19.60;93.10;;;;;;5097854;28;20012;-73
2022/09/02 01:34:47;;;;;;;2.05;1.60;;;19.60;92.90;;;;;;5103841;28;20023;-72
2022/09/02 01:37:13;;;;;;;5.30;1.80;;;19.60;92.80;;;;;;5096963;28;20406;-72
2022/09/02 01:39:39;;;;;;;2.13;1.35;;;19.60;92.70;;;;;;5100427;28;20090;-72
2022/09/02 01:42:05;;;;;;;9.95;1.55;;;19.60;92.70;;;;;;5106793;28;20198;-72
2022/09/02 01:44:32;;;;;;;1.75;1.50;;;19.60;92.60;;;;;;5098333;28;20055;-73
2022/09/02 01:46:57;;;;;;;3.42;1.38;;;19.60;92.60;;;;;;5106502;28;20043;-73
2022/09/02 01:49:23;;;;;;;4.05;1.70;;;19.60;92.50;;;;;;5100540;28;20066;-72
2022/09/02 01:51:53;;;;;;;5.97;1.55;;;19.60;92.30;;;;;;5098465;28;20028;-73
2022/09/02 01:54:19;;;;;;;4.13;1.75;;;19.60;92.40;;;;;;5100357;28;20016;-72
2022/09/02 01:56:44;;;;;;;2.70;1.55;;;19.60;92.20;;;;;;5100580;28;20020;-72
2022/09/02 01:59:16;;;;;;;4.40;1.67;;;19.60;92.20;;;;;;5099050;28;20478;-73
2022/09/02 02:01:43;;;;;;;2.03;1.55;;;19.50;92.10;;;;;;5095659;28;20310;-72
2022/09/02 02:04:09;;;;;;;2.92;1.35;;;19.60;92.00;;;;;;5102028;28;20058;-73
2022/09/02 02:06:38;;;;;;;5.97;1.55;;;19.60;91.90;;;;;;5101215;28;20027;-73
2022/09/02 02:09:04;;;;;;;3.22;1.50;;;19.60;91.90;;;;;;5097586;28;20036;-72
2022/09/02 02:11:30;;;;;;;1.73;1.55;;;19.60;92.00;;;;;;5099672;28;20035;-72
2022/09/02 02:13:55;;;;;;;2.95;1.45;;;19.50;92.00;;;;;;5099270;28;20528;-72
2022/09/02 02:16:21;;;;;;;4.40;1.55;;;19.50;92.10;;;;;;5102214;28;20107;-73
2022/09/02 02:18:47;;;;;;;5.57;1.80;;;19.50;91.90;;;;;;5098005;28;20107;-72
2022/09/02 02:21:13;;;;;;;2.40;1.70;;;19.50;92.10;;;;;;5099589;28;20115;-73
2022/09/02 02:23:39;;;;;;;3.28;1.40;;;19.50;92.10;;;;;;5103386;28;20376;-73
2022/09/02 02:26:05;;;;;;;4.82;1.80;;;19.50;92.00;;;;;;5103944;28;20116;-73
2022/09/02 02:28:31;;;;;;;4.40;1.70;;;19.50;91.80;;;;;;5096711;28;20102;-72
2022/09/02 02:30:58;;;;;;;2.53;1.63;;;19.40;91.90;;;;;;5103315;28;20028;-73
2022/09/02 02:33:24;;;;;;;2.05;1.45;;;19.40;91.80;;;;;;5095830;28;20250;-74
2022/09/02 02:35:51;;;;;;;4.35;1.77;;;19.40;91.70;;;;;;5102043;28;20036;-73
2022/09/02 02:38:16;;;;;;;1.88;1.52;;;19.50;91.80;;;;;;5096457;28;20055;-74
2022/09/02 02:40:42;;;;;;;2.22;1.48;;;19.50;91.80;;;;;;5095860;28;20082;-74
2022/09/02 02:43:08;;;;;;;3.95;1.50;;;19.50;91.60;;;;;;5104261;28;20103;-73
2022/09/02 02:45:33;;;;;;;2.88;1.63;;;19.40;91.50;;;;;;5104888;28;20114;-74
2022/09/02 02:47:59;;;;;;;4.47;1.60;;;19.40;91.50;;;;;;5092706;28;20453;-74
2022/09/02 02:50:25;;;;;;;4.78;1.80;;;19.40;91.70;;;;;;5095110;28;20036;-73
2022/09/02 02:52:53;;;;;;;3.83;1.60;;;19.40;91.70;;;;;;5107499;28;20012;-74
2022/09/02 02:55:20;;;;;;;3.45;1.50;;;19.30;91.70;;;;;;5097111;28;20035;-73
2022/09/02 02:57:46;;;;;;;3.63;1.45;;;19.30;92.30;;;;;;5107449;28;20019;-74
2022/09/02 03:00:21;;;;;;;2.22;1.70;;;19.30;91.80;;;;;;5105163;28;20023;-74
2022/09/02 03:02:48;;;;;;;2.35;1.45;;;19.20;91.90;;;;;;5080915;28;20020;-74
2022/09/02 03:05:15;;;;;;;4.55;1.40;;;19.20;91.90;;;;;;5094834;28;20106;-73
2022/09/02 03:07:42;;;;;;;1.95;1.58;;;19.10;91.80;;;;;;5108140;28;20029;-74
2022/09/02 03:10:10;;;;;;;5.38;1.25;;;19.10;91.90;;;;;;5098341;28;20059;-73
2022/09/02 03:12:37;;;;;;;3.63;1.25;;;19.10;92.20;;;;;;5107456;28;20031;-74
2022/09/02 03:15:04;;;;;;;1.70;1.50;;;19.10;91.80;;;;;;5096831;28;20382;-74
2022/09/02 03:17:30;;;;;;;1.50;1.10;;;19.10;92.00;;;;;;5107030;28;20520;-74
2022/09/02 03:19:58;;;;;;;1.30;1.25;;;19.00;91.60;;;;;;5105052;28;20043;-74
2022/09/02 03:22:27;;;;;;;3.28;1.50;;;19.00;91.60;;;;;;5096171;28;20106;-75
2022/09/02 03:24:53;;;;;;;2.03;1.25;;;19.00;91.60;;;;;;5097779;28;20020;-74
2022/09/02 03:27:19;;;;;;;4.72;1.33;;;19.10;91.50;;;;;;5095854;28;20027;-73
2022/09/02 03:29:44;;;;;;;1.95;1.30;;;19.00;91.60;;;;;;5101748;28;20435;-74
2022/09/02 03:32:10;;;;;;;2.80;1.40;;;19.00;91.30;;;;;;5096094;28;20564;-74
2022/09/02 03:34:36;;;;;;;1.90;1.33;;;19.00;91.00;;;;;;5101801;28;20023;-73
2022/09/02 03:37:02;;;;;;;2.05;1.58;;;19.10;91.10;;;;;;5092793;28;20052;-73
2022/09/02 03:39:28;;;;;;;3.88;1.50;;;19.10;91.00;;;;;;5101905;28;20446;-74
2022/09/02 03:41:53;;;;;;;2.00;1.50;;;19.10;90.90;;;;;;5104414;28;20089;-73
2022/09/02 03:44:19;;;;;;;3.85;1.38;;;19.10;91.00;;;;;;5103099;28;20039;-73
2022/09/02 03:46:45;;;;;;;2.92;1.45;;;19.00;91.10;;;;;;5103179;28;20016;-73
2022/09/02 03:49:11;;;;;;;6.70;1.45;;;19.00;91.00;;;;;;5102911;28;20032;-74
2022/09/02 03:51:40;;;;;;;1.55;1.10;;;19.00;90.90;;;;;;5103568;28;20024;-73
2022/09/02 03:54:06;;;;;;;2.70;1.38;;;19.00;91.00;;;;;;5103348;28;20023;-74
2022/09/02 03:56:33;;;;;;;4.28;1.55;;;19.00;91.00;;;;;;5102617;28;20026;-74
2022/09/02 03:58:59;;;;;;;2.00;1.40;;;19.00;91.10;;;;;;5102042;28;20028;-74
2022/09/02 04:01:25;;;;;;;2.85;1.30;;;19.00;90.90;;;;;;5103948;28;20069;-73
2022/09/02 04:03:52;;;;;;;3.55;1.30;;;19.00;90.90;;;;;;5099543;28;20024;-74
2022/09/02 04:06:20;;;;;;;1.70;1.35;;;18.90;90.60;;;;;;5105167;28;20012;-73
2022/09/02 04:08:46;;;;;;;3.17;1.40;;;19.00;90.70;;;;;;5098417;28;20036;-73
2022/09/02 04:11:16;;;;;;;2.58;1.55;;;19.00;90.70;;;;;;5104912;28;20020;-74
2022/09/02 04:13:43;;;;;;;4.20;1.17;;;19.00;90.70;;;;;;5104809;28;20103;-73
2022/09/02 04:16:15;;;;;;;2.17;1.35;;;19.00;90.80;;;;;;5106349;28;20020;-73
2022/09/02 04:18:41;;;;;;;2.03;1.40;;;18.90;90.90;;;;;;5101338;28;20019;-73
2022/09/02 04:21:07;;;;;;;3.33;1.20;;;18.90;91.00;;;;;;5101324;28;20498;-74
2022/09/02 04:23:33;;;;;;;2.10;1.20;;;18.90;90.80;;;;;;5099779;28;20027;-73
2022/09/02 04:26:07;;;;;;;3.97;1.50;;;18.90;90.80;;;;;;5106275;28;20106;-73
2022/09/02 04:28:33;;;;;;;1.15;1.05;;;18.80;90.90;;;;;;5097791;28;20504;-73
2022/09/02 04:31:02;;;;;;;5.65;1.15;;;18.90;90.90;;;;;;5106048;28;20024;-74
2022/09/02 04:33:27;;;;;;;2.42;1.33;;;18.90;91.10;;;;;;5098955;28;20502;-73
2022/09/02 04:35:53;;;;;;;3.05;1.60;;;18.80;91.00;;;;;;5104561;28;20082;-73
2022/09/02 04:38:19;;;;;;;1.35;1.10;;;18.80;91.20;;;;;;5098185;28;20056;-73
2022/09/02 04:40:46;;;;;;;3.42;1.25;;;18.80;91.20;;;;;;5096288;28;20016;-73
2022/09/02 04:43:12;;;;;;;2.17;1.50;;;18.80;91.20;;;;;;5094515;28;20501;-73
2022/09/02 04:45:43;;;;;;;2.70;1.20;;;18.80;91.10;;;;;;5105688;28;20060;-73
2022/09/02 04:48:10;;;;;;;2.30;1.20;;;18.80;91.20;;;;;;5097656;28;20545;-73
2022/09/02 04:50:37;;;;;;;3.22;1.60;;;18.90;91.40;;;;;;5106717;28;20034;-73
2022/09/02 04:53:04;;;;;;;4.40;1.20;;;18.80;91.60;;;;;;5095882;28;20016;-74
2022/09/02 04:55:30;;;;;;;2.65;1.40;;;18.90;91.40;;;;;;5105044;28;20089;-73
2022/09/02 04:57:56;;;;;;;7.13;1.50;;;18.90;91.50;;;;;;5098755;28;20052;-73
2022/09/02 05:00:22;;;;;;;3.00;1.35;;;18.90;91.30;;;;;;5106980;28;20028;-74
2022/09/02 05:02:47;;;;;;;3.83;1.48;;;19.00;91.30;;;;;;5097509;28;20024;-73
2022/09/02 05:05:13;;;;;;;4.15;1.75;;;19.00;91.60;;;;;;5107798;28;20382;-74
2022/09/02 05:07:39;;;;;;;3.30;1.65;;;19.00;91.60;;;;;;5095035;28;20073;-74
2022/09/02 05:10:06;;;;;;;2.15;1.45;;;19.00;91.40;;;;;;5099355;28;20443;-76
2022/09/02 05:12:34;;;;;;;3.70;1.30;;;19.00;91.40;;;;;;5108798;28;20039;-73
2022/09/02 05:15:00;;;;;;;3.05;1.67;;;19.10;91.40;;;;;;5105072;28;20012;-74
2022/09/02 05:17:27;;;;;;;3.78;1.40;;;19.10;91.30;;;;;;5097959;28;20031;-73
2022/09/02 05:19:52;;;;;;;2.45;1.40;;;19.20;91.40;;;;;;5104061;28;20065;-74
2022/09/02 05:22:18;;;;;;;1.92;1.30;;;19.10;91.20;;;;;;5096791;28;20024;-73
2022/09/02 05:24:45;;;;;;;2.75;1.60;;;19.20;91.20;;;;;;5099696;28;20024;-73
2022/09/02 05:27:14;;;;;;;1.92;1.40;;;19.30;91.30;;;;;;5107202;28;20489;-74
2022/09/02 05:29:39;;;;;;;4.38;1.40;;;19.20;91.30;;;;;;5096103;28;20628;-73
2022/09/02 05:32:06;;;;;;;3.63;1.48;;;19.30;91.00;;;;;;5102029;28;20029;-76
2022/09/02 05:34:34;;;;;;;4.15;1.30;;;19.30;91.20;;;;;;5103022;28;20432;-75
2022/09/02 05:37:01;;;;;;;2.33;1.33;;;19.40;91.10;;;;;;5098484;28;20044;-73
2022/09/02 05:39:27;;;;;;;2.03;1.40;;;19.50;91.10;;;;;;5102725;28;20027;-73
2022/09/02 05:41:52;;;;;;;1.52;1.08;;;19.50;90.90;;;;;;5104454;28;20028;-76
2022/09/02 05:44:18;;;;;;;12.10;1.83;;;19.60;90.80;;;;;;5100655;28;20078;-75
2022/09/02 05:46:44;;;;;;;5.15;1.80;;;19.60;90.90;;;;;;5099803;28;20024;-75
2022/09/02 05:49:17;;;;;;;2.05;1.20;;;19.60;90.90;;;;;;5099262;28;20501;-74
2022/09/02 05:51:59;;;;;;;7.43;2.30;;;19.60;91.10;;;;;;5095938;28;20020;-74
2022/09/02 05:54:29;;;;;;;3.30;1.50;;;19.70;91.20;;;;;;5103437;28;20111;-74
2022/09/02 05:57:02;;;;;;;2.20;1.55;;;19.70;91.20;;;;;;5098995;27;20605;-74
2022/09/02 05:59:28;;;;;;;;;;;19.70;91.10;;;;;;5104464;28;20032;-74
2022/09/02 06:01:55;;;;;;;2.20;1.27;;;19.80;91.10;;;;;;5097751;28;20369;-74
2022/09/02 06:04:21;;;;;;;10.73;1.65;;;19.80;91.00;;;;;;5099957;28;20047;-74
2022/09/02 06:06:48;;;;;;;2.00;1.35;;;19.90;90.90;;;;;;5104464;28;20023;-75
2022/09/02 06:09:16;;;;;;;2.15;1.33;;;19.80;90.90;;;;;;5100457;28;20118;-74
2022/09/02 06:11:44;;;;;;;4.05;1.42;;;19.90;90.80;;;;;;5102571;28;20038;-75
2022/09/02 06:14:13;;;;;;;3.65;1.40;;;19.90;90.90;;;;;;5100648;28;20027;-75
2022/09/02 06:16:40;;;;;;;2.15;1.40;;;20.00;90.80;;;;;;5094481;28;20024;-75
2022/09/02 06:19:06;;;;;;;3.72;1.70;;;20.00;90.40;;;;;;5100772;28;20505;-75
2022/09/02 06:21:32;;;;;;;2.47;1.30;;;20.10;90.40;;;;;;5100718;28;20028;-74
2022/09/02 06:23:59;;;;;;;2.22;1.45;;;20.10;90.60;;;;;;5098338;28;20547;-77
2022/09/02 06:26:25;;;;;;;2.08;0.98;;;20.20;90.40;;;;;;5100053;28;20024;-74
2022/09/02 06:28:51;;;;;;;5.35;1.30;;;20.20;90.30;;;;;;5097994;28;20074;-74
2022/09/02 06:31:19;;;;;;;3.17;1.38;;;20.30;90.20;;;;;;5102686;28;20028;-74
2022/09/02 06:33:47;;;;;;;2.42;1.40;;;20.30;90.10;;;;;;5097149;28;20012;-74
2022/09/02 06:36:16;;;;;;;3.28;1.20;;;20.40;90.10;;;;;;5102635;28;20243;-75
2022/09/02 06:38:46;;;;;;;2.15;1.30;;;20.40;90.50;;;;;;5096797;28;20016;-74
2022/09/02 06:41:25;;;;;;;2.10;1.60;;;20.40;90.00;;;;;;5101921;28;20023;-74
2022/09/02 06:43:51;;;;;;;1.88;1.35;;;20.50;89.90;;;;;;5102315;28;20108;-74
2022/09/02 06:46:24;;;;;;;3.42;1.33;;;20.60;90.30;;;;;;5102918;28;20498;-75
2022/09/02 06:48:50;;;;;;;2.50;1.52;;;20.60;90.00;;;;;;5099513;28;20074;-75
2022/09/02 06:51:27;;;;;;;3.22;1.50;;;20.60;89.10;;;;;;5100512;28;20023;-76
2022/09/02 06:53:53;;;;;;;5.85;1.50;;;20.70;90.00;;;;;;5102356;28;20767;-74
2022/09/02 06:56:19;;;;;;;2.17;1.40;;;20.70;89.10;;;;;;5101248;28;20024;-75
2022/09/02 06:58:45;;;;;;;1.60;1.33;;;20.80;89.10;;;;;;5102141;28;20031;-75
2022/09/02 07:01:22;;;;;;;1.63;1.17;;;20.80;89.20;;;;;;5102644;28;20020;-75
2022/09/02 07:06:37;;;;;;;3.08;1.60;;;20.90;88.80;;;;;;5099420;28;20500;-77
2022/09/02 07:09:05;;;;;;;2.25;1.42;;;20.90;89.00;;;;;;5097446;28;20027;-76
2022/09/02 07:11:31;;;;;;;3.55;1.38;;;21.00;89.10;;;;;;5099404;28;20024;-75
2022/09/02 07:14:00;;;;;;;2.20;1.27;;;21.00;89.20;;;;;;5100656;28;20026;-90
2022/09/02 07:16:35;;;;;;;1.60;1.50;;;21.10;89.50;;;;;;5101401;28;20016;-86
2022/09/02 07:19:01;;;;;;;2.50;1.50;;;21.10;88.70;;;;;;5104028;28;20025;-77
2022/09/02 07:21:31;;;;;;;1.67;1.33;;;21.10;89.20;;;;;;5103653;28;20032;-76
2022/09/02 07:24:01;;;;;;;1.98;1.23;;;21.20;89.60;;;;;;5105877;28;20020;-76
2022/09/02 07:26:27;;;;;;;4.25;1.50;;;21.20;89.30;;;;;;5106345;28;20020;-76
2022/09/02 07:28:54;;;;;;;1.52;1.25;;;21.30;89.40;;;;;;5103310;28;20039;-76
2022/09/02 07:31:20;;;;;;;1.30;1.20;;;21.30;89.80;;;;;;5105100;28;20028;-76
2022/09/02 07:33:46;;;;;;;2.25;1.48;;;21.40;90.00;;;;;;5104535;28;20028;-76
2022/09/02 07:36:13;;;;;;;2.80;1.27;;;21.50;89.00;;;;;;5106433;28;20040;-76
2022/09/02 07:38:40;;;;;;;3.92;1.60;;;21.50;89.40;;;;;;5100023;28;20019;-76
2022/09/02 07:41:08;;;;;;;3.78;1.33;;;21.50;89.40;;;;;;5101563;28;20084;-76
2022/09/02 07:43:36;;;;;;;2.17;1.30;;;21.60;89.70;;;;;;5106647;28;20478;-77
2022/09/02 07:46:02;;;;;;;2.72;1.27;;;21.60;90.20;;;;;;5107217;28;20529;-77
2022/09/02 07:48:30;;;;;;;2.42;1.30;;;21.70;88.60;;;;;;5099819;28;20151;-76
2022/09/02 07:50:56;;;;;;;2.08;1.38;;;21.80;89.40;;;;;;5106583;28;20673;-76
2022/09/02 07:53:22;;;;;;;2.38;1.30;;;21.80;89.60;;;;;;5099694;28;20027;-77
2022/09/02 07:55:48;;;;;;;4.72;1.60;;;21.80;90.10;;;;;;5107407;28;20475;-77
2022/09/02 07:58:15;;;;;;;3.20;1.40;;;21.90;89.10;;;;;;5098758;28;20020;-76
2022/09/02 08:00:41;;;;;;;1.30;1.20;;;21.90;88.50;;;;;;5106157;28;20027;-76
2022/09/02 08:03:09;;;;;;;5.15;1.60;;;22.00;89.50;;;;;;5096740;28;20016;-77
2022/09/02 08:05:35;;;;;;;2.22;1.33;;;22.00;89.00;;;;;;5107474;28;20090;-76
2022/09/02 08:08:02;;;;;;;3.65;1.35;;;22.10;88.80;;;;;;5099390;28;20023;-76
2022/09/02 08:10:29;;;;;;;3.40;1.52;;;22.10;89.90;;;;;;5100852;28;20039;-76
2022/09/02 08:12:57;;;;;;;2.08;1.10;;;22.20;88.90;;;;;;5109189;28;20020;-76
2022/09/02 08:15:23;;;;;;;5.43;1.58;;;22.20;89.70;;;;;;5107559;28;20024;-76
2022/09/02 08:17:49;;;;;;;5.20;1.75;;;22.30;90.00;;;;;;5097050;28;20031;-76
2022/09/02 08:20:16;;;;;;;4.82;2.03;;;22.40;89.20;;;;;;5108338;28;20028;-76
2022/09/02 08:22:42;;;;;;;1.67;1.58;;;22.50;87.90;;;;;;5097527;28;20076;-76
2022/09/02 08:25:09;;;;;;;3.13;1.58;;;22.50;89.10;;;;;;5107118;28;20084;-76
2022/09/02 08:27:36;;;;;;;4.95;1.40;;;22.50;88.50;;;;;;5096500;28;20019;-76
2022/09/02 08:30:04;;;;;;;7.03;1.50;;;22.60;89.00;;;;;;5106439;28;20347;-76
2022/09/02 08:32:31;;;;;;;6.47;1.50;;;22.60;88.80;;;;;;5098178;28;20019;-76
2022/09/02 08:35:01;;;;;;;4.07;1.45;;;22.70;88.30;;;;;;5105359;28;20016;-76
2022/09/02 08:37:28;;;;;;;5.15;1.48;;;22.70;88.30;;;;;;5098632;28;20016;-76
2022/09/02 08:39:54;;;;;;;3.28;1.60;;;22.80;88.30;;;;;;5095347;28;20398;-77
2022/09/02 08:42:19;;;;;;;5.88;1.90;;;22.80;88.50;;;;;;5094538;28;20024;-76
2022/09/02 08:44:46;;;;;;;4.68;1.40;;;22.90;89.20;;;;;;5100181;28;20074;-76
2022/09/02 08:47:18;;;;;;;4.00;1.48;;;22.90;88.20;;;;;;5108381;28;20020;-76
2022/09/02 08:49:49;;;;;;;2.53;1.50;;;22.90;87.50;;;;;;5104125;28;20042;-76
2022/09/02 08:52:24;;;;;;;5.47;1.35;;;22.90;88.50;;;;;;5098613;28;20028;-76
2022/09/02 08:54:54;;;;;;;3.30;1.35;;;23.00;87.40;;;;;;5099267;28;20038;-77
2022/09/02 08:57:26;;;;;;;2.30;1.50;;;23.10;87.50;;;;;;5094718;28;20024;-75
2022/09/02 08:59:57;;;;;;;6.07;1.60;;;23.10;87.30;;;;;;5101951;28;20074;-74
2022/09/02 09:02:26;;;;;;;1.90;1.30;;;23.20;88.50;;;;;;5093128;28;20024;-75
2022/09/02 09:05:22;;;;;;;2.28;1.30;;;23.20;88.60;;;;;;5093711;28;20024;-75
2022/09/02 09:08:13;;;;;;;2.78;1.42;;;23.30;87.80;;;;;;5078953;28;20016;-74
2022/09/02 09:11:09;;;;;;;2.38;1.50;;;23.30;87.00;;;;;;5096706;28;20024;-75
2022/09/02 09:13:38;;;;;;;10.88;1.80;;;23.40;87.50;;;;;;5101395;27;20020;-75
2022/09/02 09:16:11;;;;;;;3.33;1.30;;;23.50;87.30;;;;;;5101842;28;20502;-75
2022/09/02 09:18:38;;;;;;;3.35;1.10;;;23.60;86.40;;;;;;5095803;28;20024;-75
2022/09/02 09:21:07;;;;;;;1.77;1.30;;;23.60;85.90;;;;;;5100140;28;20031;-75
2022/09/02 09:23:37;;;;;;;3.33;1.50;;;23.70;85.80;;;;;;5093513;28;20027;-76
2022/09/02 09:26:17;;;;;;;2.22;1.80;;;23.70;86.80;;;;;;5101358;28;20036;-76
2022/09/02 09:28:49;;;;;;;3.85;1.65;;;23.80;87.00;;;;;;5095630;28;20115;-76
2022/09/02 09:31:20;;;;;;;3.22;1.40;;;23.80;85.70;;;;;;5100624;28;20159;-75
2022/09/02 09:33:55;;;;;;;2.85;1.52;;;23.90;86.10;;;;;;5093837;28;20092;-76
2022/09/02 09:36:41;;;;;;;2.92;1.50;;;24.00;85.70;;;;;;5098612;28;20072;-76
2022/09/02 09:39:30;;;;;;;1.60;1.50;;;24.00;85.30;;;;;;5098747;28;20030;-77
2022/09/02 09:42:13;;;;;;;2.97;1.67;;;24.00;85.20;;;;;;5094678;28;20084;-76
2022/09/02 09:44:43;;;;;;;4.80;1.40;;;24.10;86.00;;;;;;5094816;28;20020;-76
2022/09/02 09:47:19;;;;;;;3.70;1.77;;;24.20;85.50;;;;;;5087769;28;20436;-75
2022/09/02 09:49:50;;;;;;;1.73;1.63;;;24.30;85.40;;;;;;5100431;28;20374;-75
2022/09/02 09:52:42;;;;;;;3.58;1.67;;;24.30;85.60;;;;;;5108340;28;20063;-76
2022/09/02 09:55:18;;;;;;;4.60;1.43;;;24.40;84.70;;;;;;5088944;28;20127;-75
2022/09/02 09:57:46;;;;;;;4.25;1.83;;;24.40;84.60;;;;;;5078030;28;20356;-76
2022/09/02 10:00:27;;;;;;;2.28;1.58;;;24.50;84.30;;;;;;5102077;28;20027;-76
2022/09/02 10:02:57;;;;;;;5.15;1.88;;;24.60;85.50;;;;;;5078784;28;20139;-75
2022/09/02 10:05:35;;;;;;;2.72;1.60;;;24.70;86.30;;;;;;5103204;28;20028;-75
2022/09/02 10:08:25;;;;;;;4.93;1.35;;;24.80;84.90;;;;;;5089893;28;20028;-75
2022/09/02 10:10:57;;;;;;;2.75;1.67;;;24.90;84.50;;;;;;5078155;28;20071;-76
2022/09/02 10:13:27;;;;;;;2.53;1.80;;;24.90;84.30;;;;;;5084799;28;20024;-75
2022/09/02 10:16:02;;;;;;;2.97;2.00;;;25.00;84.50;;;;;;5102378;28;20442;-75
2022/09/02 10:18:45;;;;;;;2.67;1.52;;;25.00;83.50;;;;;;5101148;28;20049;-76
2022/09/02 10:21:49;;;;;;;2.88;2.53;;;25.10;83.50;;;;;;5094048;28;20035;-76
2022/09/02 10:24:30;;;;;;;6.85;3.47;;;25.20;83.50;;;;;;5095420;28;20035;-75
2022/09/02 10:26:59;;;;;;;14.52;7.63;;;25.30;84.10;;;;;;5095106;28;20023;-76
2022/09/02 10:29:39;;;;;;;5.60;5.07;;;25.40;83.90;;;;;;5097822;28;20513;-76
2022/09/02 10:32:11;;;;;;;2.42;1.90;;;25.40;82.50;;;;;;5108148;28;20176;-76
2022/09/02 10:34:52;;;;;;;5.88;3.75;;;25.50;81.50;;;;;;5099088;28;20389;-75
2022/09/02 10:37:34;;;;;;;4.90;3.50;;;25.60;82.30;;;;;;5091103;28;20397;-76
2022/09/02 10:40:08;;;;;;;7.72;1.90;;;25.60;82.40;;;;;;5090528;28;20020;-75
2022/09/02 10:42:47;;;;;;;2.90;2.03;;;25.70;81.70;;;;;;5104281;28;20493;-76
2022/09/02 10:45:42;;;;;;;2.90;2.17;;;25.80;82.20;;;;;;5100058;28;20526;-75
2022/09/02 10:48:33;;;;;;;2.22;1.60;;;25.90;80.90;;;;;;5081818;28;20074;-74
2022/09/02 10:51:19;;;;;;;2.30;1.60;;;26.00;80.20;;;;;;5094591;28;20071;-75
2022/09/02 10:54:20;;;;;;;1.60;1.17;;;26.10;79.70;;;;;;5098183;27;20047;-75
2022/09/02 10:56:52;;;;;;;4.72;1.58;;;26.20;78.10;;;;;;5090727;28;20027;-76
2022/09/02 11:00:00;;;;;;;2.72;1.73;;;26.30;79.50;;;;;;5097065;28;20024;-76
2022/09/02 11:02:44;;;;;;;1.58;1.45;;;26.60;80.40;;;;;;5074023;28;20028;-81
2022/09/02 11:05:18;;;;;;;2.63;1.38;;;26.80;80.10;;;;;;5098208;28;20359;-77
2022/09/02 11:08:02;;;;;;;2.47;1.40;;;27.10;76.90;;;;;;5076312;28;20016;-77
2022/09/02 11:10:38;;;;;;;1.65;1.27;;;27.40;77.30;;;;;;5096626;28;20062;-77
2022/09/02 11:13:19;;;;;;;2.78;1.83;;;27.70;76.40;;;;;;5103604;28;20016;-78
2022/09/02 11:15:48;;;;;;;3.10;1.40;;;27.90;76.40;;;;;;5097534;28;20015;-78
2022/09/02 11:19:06;;;;;;;1.67;1.13;;;28.10;76.30;;;;;;5104995;28;20084;-78
2022/09/02 11:21:50;;;;;;;1.40;1.30;;;28.40;74.90;;;;;;5081249;28;20383;-78
2022/09/02 11:24:33;;;;;;;2.58;1.38;;;28.80;73.70;;;;;;5100326;28;20020;-78
2022/09/02 11:27:16;;;;;;;3.78;1.30;;;29.10;74.60;;;;;;5096766;28;20025;-78
2022/09/02 11:30:30;;;;;;;2.65;1.30;;;29.20;72.70;;;;;;5097008;28;20054;-78
2022/09/02 11:33:29;;;;;;;2.38;1.27;;;29.20;72.80;;;;;;5072789;28;20110;-78
2022/09/02 11:35:57;;;;;;;2.50;1.65;;;29.20;72.70;;;;;;5100501;28;20048;-78
2022/09/02 11:38:41;;;;;;;1.52;1.13;;;29.20;72.60;;;;;;5094458;28;20390;-78
2022/09/02 11:41:28;;;;;;;3.10;1.30;;;29.30;72.70;;;;;;5099071;28;20027;-78
2022/09/02 11:44:16;;;;;;;3.38;1.40;;;29.20;72.50;;;;;;5105573;28;20024;-78
2022/09/02 11:46:58;;;;;;;1.52;1.23;;;29.40;73.20;;;;;;5102915;28;20055;-79
2022/09/02 11:49:32;;;;;;;6.10;1.50;;;29.60;72.00;;;;;;5098633;28;20485;-79
2022/09/02 11:52:17;;;;;;;2.40;1.45;;;29.60;72.70;;;;;;5095635;28;20067;-79
2022/09/02 11:54:47;;;;;;;2.67;1.45;;;29.70;72.10;;;;;;5100964;28;20039;-79
2022/09/02 11:57:22;;;;;;;2.20;1.20;;;29.90;70.60;;;;;;5096616;28;20050;-77
2022/09/02 11:59:50;;;;;;;1.38;1.27;;;29.90;71.40;;;;;;5099676;28;20035;-78
2022/09/02 12:02:43;;;;;;;1.77;1.35;;;29.90;70.40;;;;;;5105675;28;20028;-79
2022/09/02 12:05:30;;;;;;;4.55;1.35;;;29.90;70.80;;;;;;5104075;28;20042;-81
2022/09/02 12:07:59;;;;;;;3.20;1.40;;;29.80;70.80;;;;;;5083968;28;20020;-77
2022/09/02 12:10:43;;;;;;;1.60;1.30;;;29.70;71.90;;;;;;5101428;28;20024;-80
2022/09/02 12:13:31;;;;;;;1.83;1.40;;;29.90;71.40;;;;;;5108731;28;20024;-80
2022/09/02 12:16:15;;;;;;;7.00;1.58;;;30.40;70.20;;;;;;5104934;28;20024;-77
2022/09/02 12:18:45;;;;;;;1.30;1.20;;;32.20;68.40;;;;;;5101340;28;20023;-77
2022/09/02 12:21:18;;;;;;;2.40;1.30;;;34.60;65.90;;;;;;5100418;28;20494;-78
2022/09/02 12:23:51;;;;;;;2.25;1.65;;;37.00;61.00;;;;;;5107444;28;20020;-78
2022/09/02 12:26:22;;;;;;;2.03;1.30;;;38.80;60.00;;;;;;5101464;28;20024;-78
2022/09/02 12:28:49;;;;;;;1.83;1.23;;;40.10;57.20;;;;;;5095160;28;20028;-79
2022/09/02 12:31:42;;;;;;;2.75;1.48;;;41.50;54.70;;;;;;5101408;28;20085;-79
2022/09/02 12:34:30;;;;;;;1.33;1.23;;;42.60;53.30;;;;;;5100546;28;20027;-79
2022/09/02 12:36:57;;;;;;;1.40;1.20;;;43.60;52.20;;;;;;5085190;28;20036;-79
2022/09/02 12:39:31;;;;;;;1.17;1.17;;;44.40;49.70;;;;;;5100570;28;20028;-79
2022/09/02 12:41:57;;;;;;;3.25;1.40;;;45.00;49.40;;;;;;5099655;28;20740;-79
2022/09/02 12:44:28;;;;;;;1.75;1.23;;;45.60;48.60;;;;;;5099460;28;20269;-79
2022/09/02 12:47:08;;;;;;;2.20;1.20;;;46.20;47.10;;;;;;5097479;28;20363;-79
2022/09/02 12:49:36;;;;;;;1.15;1.00;;;46.80;46.10;;;;;;5097597;28;20035;-80
2022/09/02 12:52:31;;;;;;;2.50;1.27;;;47.10;45.00;;;;;;5102877;28;21049;-80
2022/09/02 12:55:03;;;;;;;1.55;1.27;;;46.10;44.30;;;;;;5097184;28;20122;-79
2022/09/02 12:57:41;;;;;;;3.55;1.50;;;44.70;45.70;;;;;;5093280;28;20360;-78
2022/09/02 13:00:13;;;;;;;3.30;1.52;;;43.40;48.20;;;;;;5100493;28;20028;-80
2022/09/02 13:02:56;;;;;;;3.13;1.40;;;42.70;47.80;;;;;;5093038;28;20019;-79
2022/09/02 13:05:30;;;;;;;2.22;1.20;;;42.10;49.10;;;;;;5103102;28;20020;-79
2022/09/02 13:08:11;;;;;;;1.10;1.00;;;41.80;48.00;;;;;;5090850;28;20032;-78
2022/09/02 13:10:52;;;;;;;;;;;41.80;48.00;;;;;;5096666;28;20035;-79